createdAt,value
2023-04-14T00:00:41.145Z,2.22
2023-04-14T00:03:08.805Z,2.67
2023-04-14T00:05:36.427Z,3.10
2023-04-14T00:08:03.529Z,3.65
2023-04-14T00:10:30.350Z,3.55
2023-04-14T00:12:57.246Z,3.78
2023-04-14T00:15:24.811Z,3.20
2023-04-14T00:17:51.824Z,2.85
2023-04-14T00:20:19.068Z,3.00
2023-04-14T00:22:45.892Z,3.67
2023-04-14T00:25:12.836Z,4.30
2023-04-14T00:27:39.668Z,3.75
2023-04-14T00:30:07.340Z,3.03
2023-04-14T00:32:35.916Z,2.80
2023-04-14T00:35:03.785Z,3.22
2023-04-14T00:37:31.111Z,2.75
2023-04-14T00:39:57.947Z,2.58
2023-04-14T00:42:26.313Z,2.85
2023-04-14T00:44:54.346Z,2.88
2023-04-14T00:47:23.268Z,2.53
2023-04-14T00:49:51.368Z,2.63
2023-04-14T00:52:19.606Z,2.15
2023-04-14T00:54:46.611Z,2.90
2023-04-14T00:57:13.602Z,2.17
2023-04-14T00:59:40.996Z,1.63
2023-04-14T01:02:08.076Z,1.52
2023-04-14T01:04:52.120Z,1.45
2023-04-14T01:07:21.750Z,2.63
2023-04-14T01:09:49.165Z,1.20
2023-04-14T01:12:46.906Z,1.25
2023-04-14T01:15:39.186Z,1.08
2023-04-14T01:18:20.157Z,0.68
2023-04-14T01:20:56.860Z,1.08
2023-04-14T01:23:32.282Z,1.00
2023-04-14T01:26:20.967Z,1.30
2023-04-14T01:29:01.309Z,1.00
2023-04-14T01:31:48.437Z,0.70
2023-04-14T01:34:33.781Z,1.38
2023-04-14T01:37:16.539Z,1.13
2023-04-14T01:39:52.769Z,1.25
2023-04-14T01:42:27.150Z,1.77
2023-04-14T01:44:58.900Z,1.00
2023-04-14T01:47:27.268Z,1.00
2023-04-14T01:49:55.923Z,0.98
2023-04-14T01:52:23.318Z,0.82
2023-04-14T01:54:54.091Z,1.17
2023-04-14T01:57:23.127Z,0.80
2023-04-14T01:59:55.863Z,0.77
2023-04-14T02:02:24.663Z,1.23
2023-04-14T02:04:53.525Z,0.93
2023-04-14T02:07:22.205Z,1.27
2023-04-14T02:09:51.020Z,1.25
2023-04-14T02:12:19.898Z,1.00
2023-04-14T02:14:47.771Z,1.52
2023-04-14T02:17:20.646Z,1.50
2023-04-14T02:19:48.780Z,1.83
2023-04-14T02:22:16.826Z,1.30
2023-04-14T02:24:43.860Z,1.40
2023-04-14T02:27:22.990Z,1.80
2023-04-14T02:29:54.063Z,1.75
2023-04-14T02:32:25.999Z,2.35
2023-04-14T02:34:59.346Z,3.80
2023-04-14T02:37:31.764Z,2.08
2023-04-14T02:40:06.642Z,2.55
2023-04-14T02:42:37.494Z,2.35
2023-04-14T02:45:10.574Z,3.22
2023-04-14T02:47:41.253Z,3.42
2023-04-14T02:50:12.916Z,3.53
2023-04-14T02:52:41.088Z,2.00
2023-04-14T02:55:10.973Z,3.30
2023-04-14T02:57:38.822Z,4.07
2023-04-14T03:00:06.673Z,3.20
2023-04-14T03:02:35.512Z,2.53
2023-04-14T03:05:04.344Z,2.42
2023-04-14T03:07:32.314Z,1.85
2023-04-14T03:09:59.503Z,2.20
2023-04-14T03:12:28.057Z,2.83
2023-04-14T03:14:57.699Z,1.85
2023-04-14T03:17:27.666Z,2.03
2023-04-14T03:19:56.234Z,2.33
2023-04-14T03:22:28.325Z,1.98
2023-04-14T03:24:59.170Z,2.00
2023-04-14T03:27:28.235Z,2.78
2023-04-14T03:29:58.604Z,1.83
2023-04-14T03:32:32.452Z,1.60
2023-04-14T03:35:01.621Z,2.25
2023-04-14T03:37:31.838Z,3.55
2023-04-14T03:40:04.576Z,1.45
2023-04-14T03:42:40.612Z,1.70
2023-04-14T03:45:08.206Z,1.60
2023-04-14T03:47:35.569Z,1.90
2023-04-14T03:50:05.003Z,1.67
2023-04-14T03:52:35.972Z,1.50
2023-04-14T03:55:06.913Z,1.55
2023-04-14T03:57:37.281Z,1.95
2023-04-14T04:00:09.137Z,1.85
2023-04-14T04:02:37.818Z,1.40
2023-04-14T04:05:09.740Z,1.77
2023-04-14T04:07:40.719Z,1.38
2023-04-14T04:10:08.815Z,1.98
2023-04-14T04:12:38.363Z,1.75
2023-04-14T04:15:06.588Z,1.67
2023-04-14T04:17:35.055Z,2.78
2023-04-14T04:20:07.353Z,1.30
2023-04-14T04:22:38.119Z,1.73
2023-04-14T04:25:07.780Z,1.50
2023-04-14T04:27:35.017Z,2.13
2023-04-14T04:30:02.352Z,1.52
2023-04-14T04:32:29.946Z,2.13
2023-04-14T04:34:58.744Z,1.80
2023-04-14T04:37:29.065Z,1.63
2023-04-14T04:39:59.100Z,2.13
2023-04-14T04:42:25.984Z,2.30
2023-04-14T04:44:53.324Z,2.20
2023-04-14T04:47:20.355Z,1.60
2023-04-14T04:49:47.262Z,2.03
2023-04-14T04:52:14.354Z,2.08
2023-04-14T04:54:42.945Z,1.70
2023-04-14T04:57:10.825Z,1.95
2023-04-14T04:59:39.205Z,1.88
2023-04-14T05:02:06.838Z,1.75
2023-04-14T05:04:34.353Z,1.35
2023-04-14T05:07:02.481Z,2.55
2023-04-14T05:09:30.188Z,1.48
2023-04-14T05:11:58.993Z,2.10
2023-04-14T05:14:27.857Z,1.77
2023-04-14T05:16:55.044Z,2.30
2023-04-14T05:19:21.914Z,1.73
2023-04-14T05:21:48.849Z,1.50
2023-04-14T05:24:18.241Z,1.63
2023-04-14T05:27:01.623Z,1.48
2023-04-14T05:29:31.943Z,1.95
2023-04-14T05:31:58.694Z,1.83
2023-04-14T05:34:26.153Z,1.48
2023-04-14T05:36:53.149Z,1.70
2023-04-14T05:39:21.855Z,2.03
2023-04-14T05:41:48.827Z,2.10
2023-04-14T05:44:15.827Z,1.50
2023-04-14T05:46:42.781Z,2.28
2023-04-14T05:49:10.853Z,1.95
2023-04-14T05:51:38.226Z,1.70
2023-04-14T05:54:06.506Z,1.77
2023-04-14T05:56:36.519Z,2.00
2023-04-14T05:59:03.524Z,2.33
2023-04-14T06:01:32.919Z,1.90
2023-04-14T06:04:01.330Z,2.25
2023-04-14T06:06:29.159Z,2.10
2023-04-14T06:08:56.351Z,1.90
2023-04-14T06:11:23.564Z,1.48
2023-04-14T06:13:50.469Z,2.47
2023-04-14T06:16:17.391Z,2.10
2023-04-14T06:18:44.826Z,2.10
2023-04-14T06:21:12.289Z,1.80
2023-04-14T06:23:39.906Z,2.22
2023-04-14T06:26:07.252Z,1.85
2023-04-14T06:28:34.055Z,2.00
2023-04-14T06:31:01.097Z,1.88
2023-04-14T06:33:27.905Z,2.40
2023-04-14T06:35:55.179Z,1.75
2023-04-14T06:38:22.045Z,3.13
2023-04-14T06:40:49.795Z,1.83
2023-04-14T06:43:18.306Z,2.33
2023-04-14T06:45:45.326Z,2.38
2023-04-14T06:48:13.501Z,2.28
2023-04-14T06:50:41.992Z,2.97
2023-04-14T06:53:10.159Z,1.75
2023-04-14T06:55:41.757Z,2.20
2023-04-14T06:58:08.567Z,1.95
2023-04-14T07:00:39.015Z,2.00
2023-04-14T07:03:08.687Z,1.85
2023-04-14T07:05:35.861Z,2.22
2023-04-14T07:08:02.636Z,2.35
2023-04-14T07:10:31.789Z,1.90
2023-04-14T07:12:58.637Z,2.17
2023-04-14T07:15:25.695Z,1.80
2023-04-14T07:17:53.944Z,2.17
2023-04-14T07:20:23.159Z,1.92
2023-04-14T07:22:50.168Z,2.08
2023-04-14T07:25:17.192Z,1.58
2023-04-14T07:27:56.270Z,1.95
2023-04-14T07:30:29.613Z,2.13
2023-04-14T07:32:58.152Z,1.90
2023-04-14T07:35:26.362Z,2.00
2023-04-14T07:37:53.187Z,1.67
2023-04-14T07:40:20.578Z,2.05
2023-04-14T07:42:47.801Z,2.20
2023-04-14T07:45:14.719Z,1.52
2023-04-14T07:47:42.167Z,2.85
2023-04-14T07:50:11.089Z,2.92
2023-04-14T07:52:37.943Z,1.90
2023-04-14T07:55:05.109Z,1.27
2023-04-14T07:57:34.786Z,1.48
2023-04-14T08:00:01.713Z,1.60
2023-04-14T08:02:28.860Z,1.98
2023-04-14T08:04:56.248Z,1.40
2023-04-14T08:07:23.171Z,2.90
2023-04-14T08:09:50.056Z,1.70
2023-04-14T08:12:16.902Z,1.60
2023-04-14T08:14:43.958Z,1.38
2023-04-14T08:17:20.416Z,1.00
2023-04-14T08:19:47.991Z,1.17
2023-04-14T08:22:14.823Z,1.65
2023-04-14T08:24:42.024Z,1.33
2023-04-14T08:27:08.802Z,1.50
2023-04-14T08:29:35.714Z,1.67
2023-04-14T08:32:02.930Z,1.75
2023-04-14T08:34:30.175Z,2.33
2023-04-14T08:36:58.240Z,1.25
2023-04-14T08:39:25.065Z,1.45
2023-04-14T08:41:54.160Z,2.15
2023-04-14T08:44:22.455Z,1.10
2023-04-14T08:46:55.176Z,1.20
2023-04-14T08:49:30.225Z,1.42
2023-04-14T08:52:02.592Z,1.90
2023-04-14T08:54:32.427Z,1.15
2023-04-14T08:57:01.286Z,1.58
2023-04-14T08:59:29.183Z,0.98
2023-04-14T09:01:57.230Z,1.40
2023-04-14T09:04:25.893Z,2.15
2023-04-14T09:06:53.290Z,1.25
2023-04-14T09:09:21.639Z,1.42
2023-04-14T09:11:49.210Z,1.98
2023-04-14T09:14:18.424Z,1.00
2023-04-14T09:16:51.185Z,1.85
2023-04-14T09:19:18.723Z,1.25
2023-04-14T09:21:51.709Z,1.52
2023-04-14T09:24:23.886Z,1.92
2023-04-14T09:26:52.242Z,1.63
2023-04-14T09:29:19.121Z,2.08
2023-04-14T09:31:47.967Z,3.15
2023-04-14T09:34:18.557Z,1.65
2023-04-14T09:37:07.309Z,1.50
2023-04-14T09:39:35.407Z,0.93
2023-04-14T09:42:05.033Z,1.58
2023-04-14T09:44:31.920Z,1.08
2023-04-14T09:47:03.118Z,1.15
2023-04-14T09:49:31.231Z,0.82
2023-04-14T09:52:36.812Z,1.75
2023-04-14T09:55:12.455Z,1.48
2023-04-14T09:57:52.018Z,1.02
2023-04-14T10:00:24.766Z,1.02
2023-04-14T10:02:56.704Z,1.02
2023-04-14T10:05:34.602Z,1.10
2023-04-14T10:08:06.022Z,1.08
2023-04-14T10:10:32.949Z,1.60
2023-04-14T10:13:00.690Z,1.10
2023-04-14T10:15:28.334Z,1.02
2023-04-14T10:17:55.963Z,1.35
2023-04-14T10:20:24.066Z,0.80
2023-04-14T10:22:53.798Z,1.00
2023-04-14T10:25:21.223Z,1.05
2023-04-14T10:27:49.902Z,1.02
2023-04-14T10:30:17.219Z,1.40
2023-04-14T10:32:46.203Z,2.40
2023-04-14T10:35:15.839Z,1.45
2023-04-14T10:37:53.922Z,1.52
2023-04-14T10:40:23.485Z,1.15
2023-04-14T10:42:55.774Z,1.90
2023-04-14T10:45:23.388Z,1.05
2023-04-14T10:47:51.776Z,1.45
2023-04-14T10:50:25.575Z,1.58
2023-04-14T10:52:56.483Z,1.80
2023-04-14T10:55:28.274Z,1.02
2023-04-14T10:58:08.499Z,0.65
2023-04-14T11:00:38.696Z,0.70
2023-04-14T11:03:11.467Z,1.23
2023-04-14T11:05:51.509Z,1.02
2023-04-14T11:08:35.088Z,1.13
2023-04-14T11:11:05.253Z,1.23
2023-04-14T11:13:34.372Z,1.45
2023-04-14T11:16:05.666Z,1.80
2023-04-14T11:18:37.693Z,2.53
2023-04-14T11:21:11.191Z,1.63
2023-04-14T11:23:38.849Z,1.25
2023-04-14T11:26:07.208Z,1.70
2023-04-14T11:28:39.709Z,1.63
2023-04-14T11:31:08.997Z,1.60
2023-04-14T11:33:38.304Z,0.80
2023-04-14T11:36:07.382Z,1.30
2023-04-14T11:38:41.170Z,0.70
2023-04-14T11:41:09.705Z,1.40
2023-04-14T11:43:38.276Z,1.02
2023-04-14T11:46:08.924Z,2.08
2023-04-14T11:48:35.864Z,0.93
2023-04-14T11:51:04.162Z,1.10
2023-04-14T11:53:31.284Z,0.75
2023-04-14T11:55:58.305Z,0.70
2023-04-14T11:58:27.331Z,2.25
2023-04-14T12:00:56.224Z,1.75
2023-04-14T12:03:31.639Z,1.80
2023-04-14T12:06:00.968Z,1.27
2023-04-14T12:08:30.788Z,1.77
2023-04-14T12:10:57.933Z,1.95
2023-04-14T12:13:25.243Z,1.30
2023-04-14T12:15:53.318Z,2.72
2023-04-14T12:20:56.546Z,2.08
2023-04-14T12:23:23.865Z,1.57
2023-04-14T12:25:51.662Z,1.55
2023-04-14T12:28:31.933Z,1.00
2023-04-14T12:31:04.335Z,1.10
2023-04-14T12:33:33.056Z,1.23
2023-04-14T12:36:06.238Z,0.98
2023-04-14T12:38:34.296Z,1.20
2023-04-14T12:41:01.749Z,1.10
2023-04-14T12:43:36.895Z,1.60
2023-04-14T12:46:06.086Z,0.95
2023-04-14T12:48:48.374Z,1.30
2023-04-14T12:53:50.509Z,0.75
2023-04-14T12:56:27.542Z,0.85
2023-04-14T12:58:56.265Z,1.00
2023-04-14T13:01:24.851Z,1.77
2023-04-14T13:03:58.138Z,3.47
2023-04-14T13:06:25.752Z,2.22
2023-04-14T13:08:55.010Z,1.67
2023-04-14T13:11:26.235Z,1.73
2023-04-14T13:13:54.010Z,1.50
2023-04-14T13:16:21.533Z,1.83
2023-04-14T13:18:49.225Z,1.40
2023-04-14T13:21:17.075Z,2.40
2023-04-14T13:23:45.171Z,2.08
2023-04-14T13:26:13.061Z,1.13
2023-04-14T13:28:40.020Z,1.88
2023-04-14T13:31:07.159Z,1.17
2023-04-14T13:33:34.099Z,1.40
2023-04-14T13:36:04.105Z,1.10
2023-04-14T13:38:31.274Z,0.90
2023-04-14T13:40:58.196Z,0.90
2023-04-14T13:43:25.075Z,0.70
2023-04-14T13:45:54.320Z,1.10
2023-04-14T13:48:21.277Z,1.48
2023-04-14T13:50:51.024Z,0.85
2023-04-14T13:53:18.257Z,0.75
2023-04-14T13:55:45.071Z,1.15
2023-04-14T13:58:11.856Z,1.00
2023-04-14T14:00:39.852Z,1.17
2023-04-14T14:03:06.803Z,1.25
2023-04-14T14:05:33.710Z,0.65
2023-04-14T14:08:01.053Z,0.70
2023-04-14T14:10:27.954Z,0.85
2023-04-14T14:12:54.776Z,1.20
2023-04-14T14:15:23.634Z,0.50
2023-04-14T14:17:53.180Z,0.70
2023-04-14T14:20:20.177Z,0.77
2023-04-14T14:22:47.470Z,0.75
2023-04-14T14:25:20.391Z,0.70
2023-04-14T14:27:48.552Z,1.85
2023-04-14T14:30:16.737Z,0.40
2023-04-14T14:32:43.971Z,1.00
2023-04-14T14:35:11.494Z,1.27
2023-04-14T14:37:39.449Z,1.40
2023-04-14T14:40:08.046Z,0.68
2023-04-14T14:42:34.959Z,0.82
2023-04-14T14:45:02.040Z,0.50
2023-04-14T14:47:29.240Z,0.57
2023-04-14T14:50:02.330Z,0.93
2023-04-14T14:52:36.863Z,1.48
2023-04-14T14:55:06.300Z,1.65
2023-04-14T14:57:34.166Z,0.50
2023-04-14T15:00:01.040Z,0.93
2023-04-14T15:02:28.166Z,1.13
2023-04-14T15:04:55.431Z,0.80
2023-04-14T15:07:22.510Z,0.40
2023-04-14T15:09:50.564Z,0.55
2023-04-14T15:12:19.837Z,0.70
2023-04-14T15:14:47.296Z,0.50
2023-04-14T15:17:16.406Z,2.58
2023-04-14T15:19:45.487Z,0.60
2023-04-14T15:22:12.752Z,1.00
2023-04-14T15:24:39.724Z,0.40
2023-04-14T15:27:06.967Z,0.60
2023-04-14T15:29:33.941Z,1.38
2023-04-14T15:32:01.660Z,0.70
2023-04-14T15:34:28.788Z,0.80
2023-04-14T15:36:56.182Z,0.52
2023-04-14T15:39:23.131Z,0.20
2023-04-14T15:41:50.818Z,0.50
2023-04-14T15:44:18.818Z,2.05
2023-04-14T15:46:46.573Z,0.77
2023-04-14T15:49:13.465Z,0.70
2023-04-14T15:51:40.904Z,0.60
2023-04-14T15:54:08.949Z,0.80
2023-04-14T15:56:37.198Z,0.38
2023-04-14T15:59:04.057Z,1.00
2023-04-14T16:01:31.157Z,0.40
2023-04-14T16:03:58.290Z,0.88
2023-04-14T16:06:25.659Z,0.60
2023-04-14T16:08:53.502Z,1.00
2023-04-14T16:11:20.443Z,0.90
2023-04-14T16:13:47.377Z,1.65
2023-04-14T16:16:16.141Z,0.82
2023-04-14T16:18:43.760Z,0.82
2023-04-14T16:21:10.637Z,0.60
2023-04-14T16:23:38.900Z,0.50
2023-04-14T16:26:05.852Z,0.70
2023-04-14T16:28:35.114Z,0.35
2023-04-14T16:31:03.099Z,0.93
2023-04-14T16:33:32.747Z,1.23
2023-04-14T16:36:08.010Z,0.57
2023-04-14T16:38:35.000Z,1.25
2023-04-14T16:41:03.767Z,0.95
2023-04-14T16:43:32.892Z,1.25
2023-04-14T16:46:04.693Z,1.48
2023-04-14T16:51:11.052Z,1.27
2023-04-14T16:53:39.058Z,0.57
2023-04-14T16:56:07.832Z,0.77
2023-04-14T16:58:37.220Z,0.85
2023-04-14T17:01:06.973Z,0.93
2023-04-14T17:03:34.727Z,0.88
2023-04-14T17:06:02.300Z,0.60
2023-04-14T17:08:30.193Z,0.60
2023-04-14T17:10:57.169Z,0.40
2023-04-14T17:13:24.090Z,0.75
2023-04-14T17:15:58.939Z,0.45
2023-04-14T17:18:34.278Z,0.70
2023-04-14T17:21:01.199Z,1.35
2023-04-14T17:23:28.135Z,0.90
2023-04-14T17:25:56.211Z,0.60
2023-04-14T17:28:23.679Z,0.98
2023-04-14T17:30:51.163Z,0.80
2023-04-14T17:33:20.434Z,0.60
2023-04-14T17:35:48.929Z,0.73
2023-04-14T17:38:16.884Z,0.82
2023-04-14T17:40:43.954Z,0.80
2023-04-14T17:43:10.824Z,0.95
2023-04-14T17:45:40.748Z,1.15
2023-04-14T17:48:08.728Z,1.52
2023-04-14T17:50:35.999Z,2.22
2023-04-14T17:53:02.869Z,1.60
2023-04-14T17:55:30.390Z,1.30
2023-04-14T17:57:58.043Z,1.42
2023-04-14T18:00:24.871Z,0.77
2023-04-14T18:02:52.881Z,0.63
2023-04-14T18:05:20.341Z,0.63
2023-04-14T18:07:49.587Z,0.80
2023-04-14T18:10:17.004Z,0.60
2023-04-14T18:12:44.216Z,0.45
2023-04-14T18:22:41.716Z,2.33
2023-04-14T18:25:09.706Z,1.20
2023-04-14T18:30:07.355Z,0.73
2023-04-14T18:32:34.017Z,2.80
2023-04-14T18:35:00.919Z,0.90
2023-04-14T18:37:27.936Z,1.25
2023-04-14T18:39:55.157Z,1.48
2023-04-14T18:42:21.827Z,1.48
2023-04-14T18:44:48.589Z,1.10
2023-04-14T18:47:15.960Z,2.33
2023-04-14T18:49:42.717Z,2.30
2023-04-14T18:52:09.414Z,1.23
2023-04-14T18:54:36.009Z,1.83
2023-04-14T18:57:03.405Z,1.48
2023-04-14T18:59:30.042Z,1.33
2023-04-14T19:01:58.098Z,1.10
2023-04-14T19:04:24.943Z,0.90
2023-04-14T19:06:51.594Z,1.10
2023-04-14T19:09:18.520Z,0.93
2023-04-14T19:11:46.146Z,0.82
2023-04-14T19:14:12.822Z,0.80
2023-04-14T19:16:39.863Z,1.27
2023-04-14T19:19:06.579Z,1.63
2023-04-14T19:21:33.190Z,2.40
2023-04-14T19:23:59.826Z,1.40
2023-04-14T19:26:26.542Z,1.02
2023-04-14T19:28:54.012Z,1.17
2023-04-14T19:31:21.520Z,1.10
2023-04-14T19:33:48.673Z,1.10
2023-04-14T19:36:17.248Z,0.73
2023-04-14T19:38:44.196Z,1.55
2023-04-14T19:41:11.323Z,2.63
2023-04-14T19:43:38.089Z,2.00
2023-04-14T19:46:05.233Z,1.65
2023-04-14T19:48:35.351Z,1.45
2023-04-14T19:51:02.440Z,1.73
2023-04-14T19:53:29.197Z,1.30
2023-04-14T19:55:58.219Z,2.53
2023-04-14T19:58:26.872Z,1.13
2023-04-14T20:00:57.127Z,1.30
2023-04-14T20:03:24.815Z,1.20
2023-04-14T20:05:56.787Z,1.00
2023-04-14T20:08:25.252Z,1.45
2023-04-14T20:10:54.169Z,1.08
2023-04-14T20:13:23.287Z,1.20
2023-04-14T20:15:50.781Z,1.50
2023-04-14T20:18:18.053Z,1.95
2023-04-14T20:20:47.458Z,0.93
2023-04-14T20:23:14.550Z,1.20
2023-04-14T20:25:42.945Z,1.33
2023-04-14T20:28:09.955Z,1.05
2023-04-14T20:30:37.718Z,1.52
2023-04-14T20:33:04.686Z,2.33
2023-04-14T20:35:35.659Z,2.88
2023-04-14T20:38:02.692Z,2.42
2023-04-14T20:40:30.197Z,1.55
2023-04-14T20:42:57.025Z,2.60
2023-04-14T20:45:24.050Z,2.55
2023-04-14T20:47:50.927Z,1.52
2023-04-14T20:50:18.706Z,2.03
2023-04-14T20:52:45.654Z,3.15
2023-04-14T20:55:13.574Z,2.50
2023-04-14T20:57:43.516Z,2.22
2023-04-14T21:00:12.444Z,1.85
2023-04-14T21:02:39.252Z,2.63
2023-04-14T21:05:06.384Z,2.72
2023-04-14T21:07:35.516Z,2.20
2023-04-14T21:10:04.481Z,2.67
2023-04-14T21:12:35.250Z,2.00
2023-04-14T21:15:47.715Z,1.67
2023-04-14T21:17:50.376Z,1.52
2023-04-14T21:20:17.124Z,1.30
2023-04-14T21:22:43.752Z,1.60
2023-04-14T21:25:10.425Z,1.15
2023-04-14T21:27:37.786Z,1.80
2023-04-14T21:30:04.932Z,1.65
2023-04-14T21:32:31.945Z,1.58
2023-04-14T21:34:59.078Z,1.10
2023-04-14T21:37:25.988Z,1.48
2023-04-14T21:39:53.610Z,1.50
2023-04-14T21:42:20.290Z,1.83
2023-04-14T21:44:49.972Z,2.10
2023-04-14T21:47:17.953Z,1.40
2023-04-14T21:49:46.000Z,2.25
2023-04-14T21:52:12.954Z,1.70
2023-04-14T21:54:43.694Z,1.90
2023-04-14T21:57:11.578Z,1.30
2023-04-14T21:59:38.216Z,0.90
2023-04-14T22:02:04.934Z,1.30
2023-04-14T22:04:36.296Z,1.00
2023-04-14T22:07:03.553Z,0.85
2023-04-14T22:09:30.281Z,0.88
2023-04-14T22:11:57.748Z,1.25
2023-04-14T22:14:24.499Z,1.13
2023-04-14T22:16:51.302Z,1.27
2023-04-14T22:19:19.812Z,0.98
2023-04-14T22:21:47.369Z,1.35
2023-04-14T22:24:14.503Z,1.73
2023-04-14T22:26:42.130Z,1.05
2023-04-14T22:29:09.769Z,1.23
2023-04-14T22:31:38.327Z,1.17
2023-04-14T22:34:05.575Z,2.33
2023-04-14T22:36:32.334Z,1.05
2023-04-14T22:38:59.066Z,0.88
2023-04-14T22:41:26.296Z,2.78
2023-04-14T22:43:52.975Z,1.40
2023-04-14T22:46:19.585Z,1.20
2023-04-14T22:48:46.336Z,0.98
2023-04-14T22:51:13.134Z,1.38
2023-04-14T22:53:39.809Z,1.50
2023-04-14T22:56:07.333Z,1.30
2023-04-14T22:58:39.237Z,1.40
2023-04-14T23:01:15.788Z,1.00
2023-04-14T23:03:50.120Z,0.90
2023-04-14T23:06:17.547Z,1.20
2023-04-14T23:08:44.371Z,1.40
2023-04-14T23:11:11.121Z,1.65
2023-04-14T23:13:37.734Z,1.52
2023-04-14T23:16:04.850Z,1.23
2023-04-14T23:18:32.135Z,0.90
2023-04-14T23:20:58.973Z,0.85
2023-04-14T23:23:25.836Z,1.10
2023-04-14T23:25:52.578Z,1.70
2023-04-14T23:28:19.160Z,1.50
2023-04-14T23:30:45.851Z,1.52
2023-04-14T23:33:12.519Z,2.22
2023-04-14T23:35:39.514Z,1.27
2023-04-14T23:38:06.254Z,1.80
2023-04-14T23:40:34.547Z,2.33
2023-04-14T23:43:01.518Z,2.20
2023-04-14T23:45:28.814Z,2.25
2023-04-14T23:47:55.505Z,2.42
2023-04-14T23:50:22.341Z,1.77
2023-04-14T23:52:49.098Z,1.55
2023-04-14T23:55:16.500Z,2.28
2023-04-14T23:57:44.085Z,2.88
